sensor_id;sensor_type;location;lat;lon;timestamp;pressure;altitude;pressure_sealevel;temperature;humidity
20394;BME280;10356;50.544;9.642;2024-02-16T00:00:23;98157.53;;;10.50;96.03
20394;BME280;10356;50.544;9.642;2024-02-16T00:02:49;98166.16;;;10.51;95.99
20394;BME280;10356;50.544;9.642;2024-02-16T00:05:16;98166.16;;;10.51;95.78
20394;BME280;10356;50.544;9.642;2024-02-16T00:07:42;98149.47;;;10.53;95.59
20394;BME280;10356;50.544;9.642;2024-02-16T00:10:10;98161.56;;;10.54;95.64
20394;BME280;10356;50.544;9.642;2024-02-16T00:12:37;98167.97;;;10.50;95.74
20394;BME280;10356;50.544;9.642;2024-02-16T00:15:07;98155.16;;;10.47;95.80
20394;BME280;10356;50.544;9.642;2024-02-16T00:17:36;98154.81;;;10.41;96.17
20394;BME280;10356;50.544;9.642;2024-02-16T00:20:03;98147.38;;;10.36;96.45
20394;BME280;10356;50.544;9.642;2024-02-16T00:22:32;98150.47;;;10.30;96.77
20394;BME280;10356;50.544;9.642;2024-02-16T00:24:59;98142.88;;;10.27;97.12
20394;BME280;10356;50.544;9.642;2024-02-16T00:27:25;98156.38;;;10.21;97.33
20394;BME280;10356;50.544;9.642;2024-02-16T00:29:52;98149.03;;;10.15;97.49
20394;BME280;10356;50.544;9.642;2024-02-16T00:32:20;98157.03;;;10.01;98.46
20394;BME280;10356;50.544;9.642;2024-02-16T00:34:49;98151.59;;;9.93;98.83
20394;BME280;10356;50.544;9.642;2024-02-16T00:37:17;98151.56;;;9.82;99.80
20394;BME280;10356;50.544;9.642;2024-02-16T00:39:43;98152.28;;;9.73;100.00
20394;BME280;10356;50.544;9.642;2024-02-16T00:42:10;98146.38;;;9.71;100.00
20394;BME280;10356;50.544;9.642;2024-02-16T00:44:36;98145.41;;;9.72;100.00
20394;BME280;10356;50.544;9.642;2024-02-16T00:47:04;98147.53;;;9.67;100.00
20394;BME280;10356;50.544;9.642;2024-02-16T00:49:32;98142.34;;;9.67;100.00
20394;BME280;10356;50.544;9.642;2024-02-16T00:51:59;98151.53;;;9.60;100.00
20394;BME280;10356;50.544;9.642;2024-02-16T00:54:26;98151.53;;;9.60;100.00
20394;BME280;10356;50.544;9.642;2024-02-16T00:56:53;98141.03;;;9.61;100.00
20394;BME280;10356;50.544;9.642;2024-02-16T00:59:20;98142.09;;;9.59;100.00
20394;BME280;10356;50.544;9.642;2024-02-16T01:01:46;98135.34;;;9.56;100.00
20394;BME280;10356;50.544;9.642;2024-02-16T01:04:13;98132.53;;;9.70;100.00
20394;BME280;10356;50.544;9.642;2024-02-16T01:06:41;98128.06;;;9.83;100.00
20394;BME280;10356;50.544;9.642;2024-02-16T01:09:07;98129.59;;;9.97;100.00
20394;BME280;10356;50.544;9.642;2024-02-16T01:11:33;98131.59;;;10.04;100.00
20394;BME280;10356;50.544;9.642;2024-02-16T01:14:00;98131.16;;;10.10;99.68
20394;BME280;10356;50.544;9.642;2024-02-16T01:16:26;98118.94;;;10.22;98.81
20394;BME280;10356;50.544;9.642;2024-02-16T01:18:53;98118.72;;;10.25;98.21
20394;BME280;10356;50.544;9.642;2024-02-16T01:21:21;98107.34;;;10.26;97.68
20394;BME280;10356;50.544;9.642;2024-02-16T01:23:50;98104.28;;;10.21;97.99
20394;BME280;10356;50.544;9.642;2024-02-16T01:26:16;98100.84;;;10.21;98.06
20394;BME280;10356;50.544;9.642;2024-02-16T01:28:43;98100.97;;;10.30;97.26
20394;BME280;10356;50.544;9.642;2024-02-16T01:31:10;98108.31;;;10.36;96.82
20394;BME280;10356;50.544;9.642;2024-02-16T01:33:37;98105.72;;;10.36;96.78
20394;BME280;10356;50.544;9.642;2024-02-16T01:36:04;98116.94;;;10.37;96.68
20394;BME280;10356;50.544;9.642;2024-02-16T01:38:30;98103.81;;;10.38;96.71
20394;BME280;10356;50.544;9.642;2024-02-16T01:40:58;98105.94;;;10.44;96.11
20394;BME280;10356;50.544;9.642;2024-02-16T01:43:25;98105.22;;;10.42;96.10
20394;BME280;10356;50.544;9.642;2024-02-16T01:45:52;98105.72;;;10.36;96.32
20394;BME280;10356;50.544;9.642;2024-02-16T01:48:19;98097.53;;;10.30;96.95
20394;BME280;10356;50.544;9.642;2024-02-16T01:50:48;98104.53;;;10.29;97.01
20394;BME280;10356;50.544;9.642;2024-02-16T01:53:15;98109.25;;;10.35;96.25
20394;BME280;10356;50.544;9.642;2024-02-16T01:55:43;98100.16;;;10.30;96.61
20394;BME280;10356;50.544;9.642;2024-02-16T01:58:12;98106.19;;;10.19;96.97
20394;BME280;10356;50.544;9.642;2024-02-16T02:00:39;98094.72;;;10.10;97.54
20394;BME280;10356;50.544;9.642;2024-02-16T02:03:06;98099.53;;;10.04;98.21
20394;BME280;10356;50.544;9.642;2024-02-16T02:05:33;98090.22;;;10.01;98.58
20394;BME280;10356;50.544;9.642;2024-02-16T02:08:09;98096.94;;;9.93;99.04
20394;BME280;10356;50.544;9.642;2024-02-16T02:10:35;98093.84;;;9.88;99.67
20394;BME280;10356;50.544;9.642;2024-02-16T02:13:02;98089.59;;;9.98;99.78
20394;BME280;10356;50.544;9.642;2024-02-16T02:15:29;98097.19;;;10.12;98.67
20394;BME280;10356;50.544;9.642;2024-02-16T02:17:56;98091.63;;;10.05;98.45
20394;BME280;10356;50.544;9.642;2024-02-16T02:20:23;98104.28;;;10.10;98.58
20394;BME280;10356;50.544;9.642;2024-02-16T02:22:51;98097.91;;;10.14;98.17
20394;BME280;10356;50.544;9.642;2024-02-16T02:25:18;98097.53;;;10.19;97.61
20394;BME280;10356;50.544;9.642;2024-02-16T02:27:45;98098.59;;;10.16;97.54
20394;BME280;10356;50.544;9.642;2024-02-16T02:30:11;98099.69;;;10.13;97.72
20394;BME280;10356;50.544;9.642;2024-02-16T02:32:38;98092.91;;;10.22;97.17
20394;BME280;10356;50.544;9.642;2024-02-16T02:35:06;98083.59;;;10.20;96.94
20394;BME280;10356;50.544;9.642;2024-02-16T02:37:33;98088.53;;;10.23;97.01
20394;BME280;10356;50.544;9.642;2024-02-16T02:40:02;98092.91;;;10.22;96.70
20394;BME280;10356;50.544;9.642;2024-02-16T02:42:31;98085.09;;;10.22;96.43
20394;BME280;10356;50.544;9.642;2024-02-16T02:44:57;98077.41;;;10.32;95.79
20394;BME280;10356;50.544;9.642;2024-02-16T02:47:24;98073.75;;;10.23;96.06
20394;BME280;10356;50.544;9.642;2024-02-16T02:49:50;98077.56;;;10.19;96.61
20394;BME280;10356;50.544;9.642;2024-02-16T02:52:17;98088.44;;;10.13;96.71
20394;BME280;10356;50.544;9.642;2024-02-16T02:54:44;98077.06;;;10.03;97.30
20394;BME280;10356;50.544;9.642;2024-02-16T02:57:11;98069.25;;;9.92;98.40
20394;BME280;10356;50.544;9.642;2024-02-16T02:59:38;98076.34;;;9.90;98.54
20394;BME280;10356;50.544;9.642;2024-02-16T03:02:05;98066.66;;;9.92;98.57
20394;BME280;10356;50.544;9.642;2024-02-16T03:04:31;98073.28;;;9.85;98.48
20394;BME280;10356;50.544;9.642;2024-02-16T03:06:58;98066.78;;;9.79;99.03
20394;BME280;10356;50.544;9.642;2024-02-16T03:09:25;98070.44;;;9.77;99.42
20394;BME280;10356;50.544;9.642;2024-02-16T03:11:51;98073.03;;;9.66;99.53
20394;BME280;10356;50.544;9.642;2024-02-16T03:14:19;98069.25;;;9.59;100.00
20394;BME280;10356;50.544;9.642;2024-02-16T03:16:45;98073.97;;;9.54;100.00
20394;BME280;10356;50.544;9.642;2024-02-16T03:19:12;98078.94;;;9.57;100.00
20394;BME280;10356;50.544;9.642;2024-02-16T03:21:38;98074.56;;;9.46;100.00
20394;BME280;10356;50.544;9.642;2024-02-16T03:24:05;98077.63;;;9.40;100.00
20394;BME280;10356;50.544;9.642;2024-02-16T03:26:32;98079.75;;;9.35;100.00
20394;BME280;10356;50.544;9.642;2024-02-16T03:28:58;98074.75;;;9.32;100.00
20394;BME280;10356;50.544;9.642;2024-02-16T03:31:26;98079.13;;;9.31;100.00
20394;BME280;10356;50.544;9.642;2024-02-16T03:33:54;98077.69;;;9.27;100.00
20394;BME280;10356;50.544;9.642;2024-02-16T03:36:21;98077.69;;;9.27;100.00
20394;BME280;10356;50.544;9.642;2024-02-16T03:38:48;98076.66;;;9.30;100.00
20394;BME280;10356;50.544;9.642;2024-02-16T03:41:18;98072.28;;;9.30;100.00
20394;BME280;10356;50.544;9.642;2024-02-16T03:43:45;98072.50;;;9.27;100.00
20394;BME280;10356;50.544;9.642;2024-02-16T03:46:11;98073.94;;;9.31;100.00
20394;BME280;10356;50.544;9.642;2024-02-16T03:48:39;98068.50;;;9.35;100.00
20394;BME280;10356;50.544;9.642;2024-02-16T03:51:06;98075.09;;;9.27;100.00
20394;BME280;10356;50.544;9.642;2024-02-16T03:53:32;98076.66;;;9.30;100.00
20394;BME280;10356;50.544;9.642;2024-02-16T03:55:59;98062.81;;;9.29;100.00
20394;BME280;10356;50.544;9.642;2024-02-16T03:58:26;98071.44;;;9.30;100.00
20394;BME280;10356;50.544;9.642;2024-02-16T04:00:52;98074.75;;;9.32;100.00
20394;BME280;10356;50.544;9.642;2024-02-16T04:03:19;98084.03;;;9.47;100.00
20394;BME280;10356;50.544;9.642;2024-02-16T04:05:47;98091.00;;;9.47;100.00
20394;BME280;10356;50.544;9.642;2024-02-16T04:08:13;98086.72;;;9.46;100.00
20394;BME280;10356;50.544;9.642;2024-02-16T04:10:40;98086.59;;;9.36;100.00
20394;BME280;10356;50.544;9.642;2024-02-16T04:13:06;98086.00;;;9.32;100.00
20394;BME280;10356;50.544;9.642;2024-02-16T04:15:33;98091.66;;;9.26;100.00
20394;BME280;10356;50.544;9.642;2024-02-16T04:17:59;98085.25;;;9.19;100.00
20394;BME280;10356;50.544;9.642;2024-02-16T04:20:25;98087.38;;;9.14;100.00
20394;BME280;10356;50.544;9.642;2024-02-16T04:22:53;98091.16;;;9.10;100.00
20394;BME280;10356;50.544;9.642;2024-02-16T04:25:20;98099.28;;;9.06;100.00
20394;BME280;10356;50.544;9.642;2024-02-16T04:27:46;98091.81;;;9.01;100.00
20394;BME280;10356;50.544;9.642;2024-02-16T04:30:13;98100.28;;;8.92;100.00
20394;BME280;10356;50.544;9.642;2024-02-16T04:32:39;98096.97;;;8.90;100.00
20394;BME280;10356;50.544;9.642;2024-02-16T04:35:06;98091.28;;;8.85;100.00
20394;BME280;10356;50.544;9.642;2024-02-16T04:37:37;98089.25;;;8.78;100.00
20394;BME280;10356;50.544;9.642;2024-02-16T04:40:06;98081.78;;;8.73;100.00
20394;BME280;10356;50.544;9.642;2024-02-16T04:42:33;98084.25;;;8.75;100.00
20394;BME280;10356;50.544;9.642;2024-02-16T04:44:59;98082.59;;;8.74;100.00
20394;BME280;10356;50.544;9.642;2024-02-16T04:47:27;98088.06;;;8.82;100.00
20394;BME280;10356;50.544;9.642;2024-02-16T04:49:53;98090.94;;;8.90;100.00
20394;BME280;10356;50.544;9.642;2024-02-16T04:52:20;98092.84;;;8.99;100.00
20394;BME280;10356;50.544;9.642;2024-02-16T04:54:47;98097.44;;;8.95;100.00
20394;BME280;10356;50.544;9.642;2024-02-16T04:57:15;98097.91;;;8.89;100.00
20394;BME280;10356;50.544;9.642;2024-02-16T04:59:41;98089.13;;;8.79;100.00
20394;BME280;10356;50.544;9.642;2024-02-16T05:02:08;98087.69;;;8.75;100.00
20394;BME280;10356;50.544;9.642;2024-02-16T05:04:34;98091.50;;;8.82;100.00
20394;BME280;10356;50.544;9.642;2024-02-16T05:07:01;98089.72;;;8.83;100.00
20394;BME280;10356;50.544;9.642;2024-02-16T05:09:27;98098.34;;;8.83;100.00
20394;BME280;10356;50.544;9.642;2024-02-16T05:11:54;98100.22;;;8.81;100.00
20394;BME280;10356;50.544;9.642;2024-02-16T05:14:21;98101.06;;;8.82;100.00
20394;BME280;10356;50.544;9.642;2024-02-16T05:16:49;98106.72;;;8.76;100.00
20394;BME280;10356;50.544;9.642;2024-02-16T05:19:16;98109.41;;;8.74;100.00
20394;BME280;10356;50.544;9.642;2024-02-16T05:21:43;98105.28;;;8.72;100.00
20394;BME280;10356;50.544;9.642;2024-02-16T05:24:10;98109.88;;;8.68;100.00
20394;BME280;10356;50.544;9.642;2024-02-16T05:26:36;98094.59;;;8.64;100.00
20394;BME280;10356;50.544;9.642;2024-02-16T05:29:03;98094.72;;;8.62;100.00
20394;BME280;10356;50.544;9.642;2024-02-16T05:31:30;98093.28;;;8.58;100.00
20394;BME280;10356;50.544;9.642;2024-02-16T05:33:57;98096.69;;;8.59;100.00
20394;BME280;10356;50.544;9.642;2024-02-16T05:36:24;98098.47;;;8.58;100.00
20394;BME280;10356;50.544;9.642;2024-02-16T05:38:52;98097.66;;;8.58;100.00
20394;BME280;10356;50.544;9.642;2024-02-16T05:41:21;98110.50;;;8.59;100.00
20394;BME280;10356;50.544;9.642;2024-02-16T05:43:47;98101.28;;;8.55;100.00
20394;BME280;10356;50.544;9.642;2024-02-16T05:46:15;98093.59;;;8.54;100.00
20394;BME280;10356;50.544;9.642;2024-02-16T05:48:43;98090.19;;;8.53;100.00
20394;BME280;10356;50.544;9.642;2024-02-16T05:51:11;98091.84;;;8.54;100.00
20394;BME280;10356;50.544;9.642;2024-02-16T05:53:38;98099.91;;;8.62;100.00
20394;BME280;10356;50.544;9.642;2024-02-16T05:56:05;98095.44;;;8.64;100.00
20394;BME280;10356;50.544;9.642;2024-02-16T05:58:31;98095.19;;;8.67;100.00
20394;BME280;10356;50.544;9.642;2024-02-16T06:00:59;98103.72;;;8.69;100.00
20394;BME280;10356;50.544;9.642;2024-02-16T06:03:25;98107.34;;;8.67;100.00
20394;BME280;10356;50.544;9.642;2024-02-16T06:05:54;98100.53;;;8.66;100.00
20394;BME280;10356;50.544;9.642;2024-02-16T06:08:20;98106.75;;;8.63;100.00
20394;BME280;10356;50.544;9.642;2024-02-16T06:10:47;98100.13;;;8.59;100.00
20394;BME280;10356;50.544;9.642;2024-02-16T06:13:16;98103.44;;;8.61;100.00
20394;BME280;10356;50.544;9.642;2024-02-16T06:15:42;98106.03;;;8.61;100.00
20394;BME280;10356;50.544;9.642;2024-02-16T06:18:09;98103.44;;;8.61;100.00
20394;BME280;10356;50.544;9.642;2024-02-16T06:20:35;98105.31;;;8.59;100.00
20394;BME280;10356;50.544;9.642;2024-02-16T06:23:03;98114.97;;;8.57;100.00
20394;BME280;10356;50.544;9.642;2024-02-16T06:25:30;98113.44;;;8.55;100.00
20394;BME280;10356;50.544;9.642;2024-02-16T06:27:57;98113.44;;;8.55;100.00
20394;BME280;10356;50.544;9.642;2024-02-16T06:30:24;98104.13;;;8.52;100.00
20394;BME280;10356;50.544;9.642;2024-02-16T06:32:50;98106.00;;;8.50;100.00
20394;BME280;10356;50.544;9.642;2024-02-16T06:35:17;98106.00;;;8.50;100.00
20394;BME280;10356;50.544;9.642;2024-02-16T06:37:43;98115.31;;;8.53;100.00
20394;BME280;10356;50.544;9.642;2024-02-16T06:40:12;98119.47;;;8.55;100.00
20394;BME280;10356;50.544;9.642;2024-02-16T06:42:38;98124.81;;;8.65;100.00
20394;BME280;10356;50.544;9.642;2024-02-16T06:45:06;98115.88;;;8.69;100.00
20394;BME280;10356;50.544;9.642;2024-02-16T06:47:32;98118.38;;;8.70;100.00
20394;BME280;10356;50.544;9.642;2024-02-16T06:49:59;98117.41;;;8.71;100.00
20394;BME280;10356;50.544;9.642;2024-02-16T06:52:25;98119.81;;;8.74;100.00
20394;BME280;10356;50.544;9.642;2024-02-16T06:54:52;98108.47;;;8.75;100.00
20394;BME280;10356;50.544;9.642;2024-02-16T06:57:20;98114.38;;;8.77;100.00
20394;BME280;10356;50.544;9.642;2024-02-16T06:59:46;98116.06;;;8.78;100.00
20394;BME280;10356;50.544;9.642;2024-02-16T07:02:13;98117.25;;;8.85;100.00
20394;BME280;10356;50.544;9.642;2024-02-16T07:04:40;98133.84;;;8.95;100.00
20394;BME280;10356;50.544;9.642;2024-02-16T07:07:07;98127.97;;;9.04;100.00
20394;BME280;10356;50.544;9.642;2024-02-16T07:09:33;98134.59;;;9.08;100.00
20394;BME280;10356;50.544;9.642;2024-02-16T07:12:00;98134.16;;;9.14;100.00
20394;BME280;10356;50.544;9.642;2024-02-16T07:14:29;98127.28;;;9.13;100.00
20394;BME280;10356;50.544;9.642;2024-02-16T07:16:55;98138.53;;;9.14;100.00
20394;BME280;10356;50.544;9.642;2024-02-16T07:19:22;98138.75;;;9.11;100.00
20394;BME280;10356;50.544;9.642;2024-02-16T07:21:48;98143.97;;;9.11;100.00
20394;BME280;10356;50.544;9.642;2024-02-16T07:24:15;98145.00;;;9.08;100.00
20394;BME280;10356;50.544;9.642;2024-02-16T07:26:41;98143.13;;;9.10;100.00
20394;BME280;10356;50.544;9.642;2024-02-16T07:29:08;98133.56;;;9.11;100.00
20394;BME280;10356;50.544;9.642;2024-02-16T07:31:36;98129.88;;;9.13;100.00
20394;BME280;10356;50.544;9.642;2024-02-16T07:34:02;98137.22;;;9.19;100.00
20394;BME280;10356;50.544;9.642;2024-02-16T07:36:29;98130.31;;;9.31;100.00
20394;BME280;10356;50.544;9.642;2024-02-16T07:38:57;98130.84;;;9.47;100.00
20394;BME280;10356;50.544;9.642;2024-02-16T07:41:23;98127.28;;;9.48;100.00
20394;BME280;10356;50.544;9.642;2024-02-16T07:43:50;98128.81;;;9.51;100.00
20394;BME280;10356;50.544;9.642;2024-02-16T07:46:16;98129.66;;;9.62;100.00
20394;BME280;10356;50.544;9.642;2024-02-16T07:48:44;98128.38;;;9.68;100.00
20394;BME280;10356;50.544;9.642;2024-02-16T07:51:11;98120.47;;;9.69;100.00
20394;BME280;10356;50.544;9.642;2024-02-16T07:53:37;98120.59;;;9.79;100.00
20394;BME280;10356;50.544;9.642;2024-02-16T07:56:06;98115.13;;;9.82;100.00
20394;BME280;10356;50.544;9.642;2024-02-16T07:58:33;98110.19;;;9.90;100.00
20394;BME280;10356;50.544;9.642;2024-02-16T08:00:59;98103.09;;;10.03;100.00
20394;BME280;10356;50.544;9.642;2024-02-16T08:03:26;98109.16;;;10.26;100.00
20394;BME280;10356;50.544;9.642;2024-02-16T08:05:54;98116.13;;;10.36;100.00
20394;BME280;10356;50.544;9.642;2024-02-16T08:08:21;98117.53;;;10.40;100.00
20394;BME280;10356;50.544;9.642;2024-02-16T08:10:48;98119.28;;;10.51;100.00
20394;BME280;10356;50.544;9.642;2024-02-16T08:13:16;98123.50;;;10.63;100.00
20394;BME280;10356;50.544;9.642;2024-02-16T08:15:43;98127.91;;;10.62;100.00
20394;BME280;10356;50.544;9.642;2024-02-16T08:18:10;98139.03;;;10.64;100.00
20394;BME280;10356;50.544;9.642;2024-02-16T08:20:37;98139.50;;;10.69;100.00
20394;BME280;10356;50.544;9.642;2024-02-16T08:23:05;98142.56;;;10.74;99.02
20394;BME280;10356;50.544;9.642;2024-02-16T08:25:32;98152.03;;;10.75;99.14
20394;BME280;10356;50.544;9.642;2024-02-16T08:27:58;98149.44;;;10.75;99.73
20394;BME280;10356;50.544;9.642;2024-02-16T08:30:25;98147.53;;;10.77;100.00
20394;BME280;10356;50.544;9.642;2024-02-16T08:32:51;98153.66;;;10.87;98.96
20394;BME280;10356;50.544;9.642;2024-02-16T08:35:19;98140.34;;;11.02;96.31
20394;BME280;10356;50.544;9.642;2024-02-16T08:37:45;98151.25;;;11.07;96.42
20394;BME280;10356;50.544;9.642;2024-02-16T08:40:13;98158.56;;;11.13;96.31
20394;BME280;10356;50.544;9.642;2024-02-16T08:42:40;98156.41;;;11.18;96.35
20394;BME280;10356;50.544;9.642;2024-02-16T08:45:08;98171.19;;;11.28;94.39
20394;BME280;10356;50.544;9.642;2024-02-16T08:47:34;98171.97;;;11.40;93.83
20394;BME280;10356;50.544;9.642;2024-02-16T08:50:01;98171.72;;;11.43;94.60
20394;BME280;10356;50.544;9.642;2024-02-16T08:52:27;98171.22;;;11.49;93.87
20394;BME280;10356;50.544;9.642;2024-02-16T08:54:54;98175.94;;;11.55;94.49
20394;BME280;10356;50.544;9.642;2024-02-16T08:57:22;98177.06;;;11.62;94.08
20394;BME280;10356;50.544;9.642;2024-02-16T08:59:49;98176.59;;;11.68;93.68
20394;BME280;10356;50.544;9.642;2024-02-16T09:02:15;98184.03;;;11.72;93.28
20394;BME280;10356;50.544;9.642;2024-02-16T09:04:42;98187.41;;;11.84;92.81
20394;BME280;10356;50.544;9.642;2024-02-16T09:07:08;98188.56;;;11.91;92.26
20394;BME280;10356;50.544;9.642;2024-02-16T09:09:36;98182.38;;;11.92;91.31
20394;BME280;10356;50.544;9.642;2024-02-16T09:12:02;98182.81;;;11.97;92.13
20394;BME280;10356;50.544;9.642;2024-02-16T09:14:30;98181.75;;;12.00;91.96
20394;BME280;10356;50.544;9.642;2024-02-16T09:16:57;98198.53;;;12.07;90.13
20394;BME280;10356;50.544;9.642;2024-02-16T09:19:24;98185.34;;;12.08;89.33
20394;BME280;10356;50.544;9.642;2024-02-16T09:21:50;98191.03;;;12.13;89.13
20394;BME280;10356;50.544;9.642;2024-02-16T09:24:19;98193.13;;;12.19;86.86
20394;BME280;10356;50.544;9.642;2024-02-16T09:26:46;98188.75;;;12.29;86.75
20394;BME280;10356;50.544;9.642;2024-02-16T09:29:12;98193.19;;;12.38;85.99
20394;BME280;10356;50.544;9.642;2024-02-16T09:31:41;98190.84;;;12.35;85.70
20394;BME280;10356;50.544;9.642;2024-02-16T09:34:07;98187.84;;;12.40;85.52
20394;BME280;10356;50.544;9.642;2024-02-16T09:36:34;98196.25;;;12.43;85.67
20394;BME280;10356;50.544;9.642;2024-02-16T09:39:01;98191.31;;;12.50;86.31
20394;BME280;10356;50.544;9.642;2024-02-16T09:41:28;98203.03;;;12.55;85.74
20394;BME280;10356;50.544;9.642;2024-02-16T09:43:55;98202.91;;;12.57;85.69
20394;BME280;10356;50.544;9.642;2024-02-16T09:46:21;98204.59;;;12.68;84.04
20394;BME280;10356;50.544;9.642;2024-02-16T09:48:51;98212.16;;;12.71;84.42
20394;BME280;10356;50.544;9.642;2024-02-16T09:51:18;98216.16;;;12.75;84.21
20394;BME280;10356;50.544;9.642;2024-02-16T09:53:50;98224.13;;;12.73;83.93
20394;BME280;10356;50.544;9.642;2024-02-16T09:56:18;98230.78;;;12.87;82.74
20394;BME280;10356;50.544;9.642;2024-02-16T09:58:45;98238.94;;;12.93;81.64
20394;BME280;10356;50.544;9.642;2024-02-16T10:01:17;98250.63;;;12.89;82.53
20394;BME280;10356;50.544;9.642;2024-02-16T10:03:44;98249.09;;;12.87;83.74
20394;BME280;10356;50.544;9.642;2024-02-16T10:06:13;98243.16;;;12.85;83.93
20394;BME280;10356;50.544;9.642;2024-02-16T10:08:47;98242.59;;;12.81;85.58
20394;BME280;10356;50.544;9.642;2024-02-16T10:11:14;98228.81;;;12.70;87.06
20394;BME280;10356;50.544;9.642;2024-02-16T10:13:41;98234.88;;;12.70;85.27
20394;BME280;10356;50.544;9.642;2024-02-16T10:16:11;98233.75;;;12.73;84.96
20394;BME280;10356;50.544;9.642;2024-02-16T10:18:39;98238.56;;;12.68;85.89
20394;BME280;10356;50.544;9.642;2024-02-16T10:21:05;98234.81;;;12.60;87.80
20394;BME280;10356;50.544;9.642;2024-02-16T10:23:34;98235.78;;;12.59;87.50
20394;BME280;10356;50.544;9.642;2024-02-16T10:26:00;98241.44;;;12.64;87.14
20394;BME280;10356;50.544;9.642;2024-02-16T10:28:28;98236.22;;;12.64;86.60
20394;BME280;10356;50.544;9.642;2024-02-16T10:30:57;98242.78;;;12.59;87.34
20394;BME280;10356;50.544;9.642;2024-02-16T10:33:26;98233.47;;;12.66;88.38
20394;BME280;10356;50.544;9.642;2024-02-16T10:35:55;98233.31;;;12.58;89.74
20394;BME280;10356;50.544;9.642;2024-02-16T10:38:22;98229.88;;;12.57;89.52
20394;BME280;10356;50.544;9.642;2024-02-16T10:40:51;98230.72;;;12.68;89.84
20394;BME280;10356;50.544;9.642;2024-02-16T10:43:18;98230.44;;;12.71;86.43
20394;BME280;10356;50.544;9.642;2024-02-16T10:45:44;98231.59;;;12.78;86.71
20394;BME280;10356;50.544;9.642;2024-02-16T10:48:12;98226.97;;;12.91;87.29
20394;BME280;10356;50.544;9.642;2024-02-16T10:50:41;98219.13;;;13.00;86.66
20394;BME280;10356;50.544;9.642;2024-02-16T10:53:12;98214.34;;;13.05;85.58
20394;BME280;10356;50.544;9.642;2024-02-16T10:55:40;98208.84;;;13.18;83.29
20394;BME280;10356;50.544;9.642;2024-02-16T10:58:10;98215.22;;;13.25;83.74
20394;BME280;10356;50.544;9.642;2024-02-16T11:00:48;98207.78;;;13.39;83.47
20394;BME280;10356;50.544;9.642;2024-02-16T11:03:16;98210.81;;;13.54;81.78
20394;BME280;10356;50.544;9.642;2024-02-16T11:05:43;98204.31;;;13.68;81.57
20394;BME280;10356;50.544;9.642;2024-02-16T11:08:12;98204.59;;;13.74;79.55
20394;BME280;10356;50.544;9.642;2024-02-16T11:10:39;98207.19;;;13.84;79.89
20394;BME280;10356;50.544;9.642;2024-02-16T11:13:08;98207.47;;;13.90;78.96
20394;BME280;10356;50.544;9.642;2024-02-16T11:15:37;98208.84;;;13.94;79.10
20394;BME280;10356;50.544;9.642;2024-02-16T11:18:04;98217.00;;;13.91;78.41
20394;BME280;10356;50.544;9.642;2024-02-16T11:20:36;98217.53;;;13.95;77.49
20394;BME280;10356;50.544;9.642;2024-02-16T11:23:08;98216.28;;;13.99;76.94
20394;BME280;10356;50.544;9.642;2024-02-16T11:25:36;98229.38;;;13.99;79.79
20394;BME280;10356;50.544;9.642;2024-02-16T11:28:03;98228.13;;;14.03;78.83
20394;BME280;10356;50.544;9.642;2024-02-16T11:30:33;98229.78;;;14.04;79.35
20394;BME280;10356;50.544;9.642;2024-02-16T11:33:01;98228.41;;;14.09;76.77
20394;BME280;10356;50.544;9.642;2024-02-16T11:35:27;98236.25;;;14.09;76.25
20394;BME280;10356;50.544;9.642;2024-02-16T11:37:55;98230.59;;;14.04;75.79
20394;BME280;10356;50.544;9.642;2024-02-16T11:40:22;98241.75;;;14.16;76.81
20394;BME280;10356;50.544;9.642;2024-02-16T11:42:49;98233.34;;;14.12;76.39
20394;BME280;10356;50.544;9.642;2024-02-16T11:45:23;98241.50;;;14.09;77.03
20394;BME280;10356;50.544;9.642;2024-02-16T11:48:03;98234.34;;;14.11;77.33
20394;BME280;10356;50.544;9.642;2024-02-16T11:50:29;98237.63;;;14.13;77.44
20394;BME280;10356;50.544;9.642;2024-02-16T11:52:56;98237.34;;;14.16;78.70
20394;BME280;10356;50.544;9.642;2024-02-16T11:55:23;98226.44;;;14.30;79.11
20394;BME280;10356;50.544;9.642;2024-02-16T11:57:50;98222.88;;;14.32;77.18
20394;BME280;10356;50.544;9.642;2024-02-16T12:00:17;98226.44;;;14.30;75.05
20394;BME280;10356;50.544;9.642;2024-02-16T12:02:44;98218.16;;;14.35;75.71
20394;BME280;10356;50.544;9.642;2024-02-16T12:05:14;98221.72;;;14.24;75.87
20394;BME280;10356;50.544;9.642;2024-02-16T12:07:41;98213.75;;;14.36;76.55
20394;BME280;10356;50.544;9.642;2024-02-16T12:10:08;98219.78;;;14.46;76.70
20394;BME280;10356;50.544;9.642;2024-02-16T12:12:35;98217.53;;;14.60;75.57
20394;BME280;10356;50.544;9.642;2024-02-16T12:15:05;98213.50;;;14.66;76.21
20394;BME280;10356;50.544;9.642;2024-02-16T12:17:33;98211.34;;;14.79;75.76
20394;BME280;10356;50.544;9.642;2024-02-16T12:19:58;98199.59;;;14.83;76.59
20394;BME280;10356;50.544;9.642;2024-02-16T12:22:26;98202.44;;;14.89;75.87
20394;BME280;10356;50.544;9.642;2024-02-16T12:24:53;98212.88;;;14.99;74.91
20394;BME280;10356;50.544;9.642;2024-02-16T12:27:19;98208.03;;;15.04;75.04
20394;BME280;10356;50.544;9.642;2024-02-16T12:29:46;98209.47;;;15.16;74.54
20394;BME280;10356;50.544;9.642;2024-02-16T12:32:13;98211.88;;;15.27;73.63
20394;BME280;10356;50.544;9.642;2024-02-16T12:34:43;98217.09;;;15.37;74.96
20394;BME280;10356;50.544;9.642;2024-02-16T12:37:10;98226.19;;;15.42;71.69
20394;BME280;10356;50.544;9.642;2024-02-16T12:39:38;98218.38;;;15.50;72.60
20394;BME280;10356;50.544;9.642;2024-02-16T12:42:05;98223.03;;;15.56;72.89
20394;BME280;10356;50.544;9.642;2024-02-16T12:44:31;98220.41;;;15.56;71.81
20394;BME280;10356;50.544;9.642;2024-02-16T12:46:58;98216.66;;;15.59;71.81
20394;BME280;10356;50.544;9.642;2024-02-16T12:49:24;98216.66;;;15.59;70.88
20394;BME280;10356;50.544;9.642;2024-02-16T12:51:51;98212.00;;;15.70;71.76
20394;BME280;10356;50.544;9.642;2024-02-16T12:54:18;98212.38;;;15.75;73.16
20394;BME280;10356;50.544;9.642;2024-02-16T12:56:46;98213.13;;;15.85;71.34
20394;BME280;10356;50.544;9.642;2024-02-16T12:59:13;98198.09;;;15.95;70.61